createdAt,value
2022-12-17T00:03:29.270Z,64.72
2022-12-17T00:06:14.994Z,72.80
2022-12-17T00:09:00.421Z,81.47
2022-12-17T00:11:46.257Z,70.18
2022-12-17T00:17:16.937Z,69.72
2022-12-17T00:20:02.273Z,78.97
2022-12-17T00:22:47.716Z,78.53
2022-12-17T00:25:32.949Z,76.20
2022-12-17T00:28:22.834Z,76.40
2022-12-17T00:31:11.397Z,77.22
2022-12-17T00:34:17.227Z,79.30
2022-12-17T00:37:02.889Z,71.43
2022-12-17T00:39:49.188Z,81.03
2022-12-17T00:42:34.483Z,66.70
2022-12-17T00:45:19.936Z,81.93
2022-12-17T00:48:06.839Z,84.13
2022-12-17T00:50:52.759Z,75.50
2022-12-17T00:53:38.276Z,76.28
2022-12-17T00:56:24.528Z,77.75
2022-12-17T00:59:09.815Z,72.93
2022-12-17T01:01:55.306Z,79.43
2022-12-17T01:04:42.536Z,76.32
2022-12-17T01:07:28.093Z,85.38
2022-12-17T01:10:13.579Z,74.60
2022-12-17T01:12:58.914Z,86.15
2022-12-17T01:15:44.256Z,76.03
2022-12-17T01:18:37.325Z,78.63
2022-12-17T01:21:23.053Z,71.80
2022-12-17T01:26:54.023Z,76.47
2022-12-17T01:29:41.441Z,78.05
2022-12-17T01:32:26.774Z,79.15
2022-12-17T01:35:12.163Z,81.07
2022-12-17T01:37:57.386Z,84.10
2022-12-17T01:40:42.926Z,87.13
2022-12-17T01:43:31.926Z,77.60
2022-12-17T01:46:17.882Z,81.68
2022-12-17T01:49:06.382Z,83.53
2022-12-17T01:51:54.381Z,83.68
2022-12-17T01:54:40.231Z,82.45
2022-12-17T01:57:26.560Z,91.35
2022-12-17T02:00:25.234Z,87.10
2022-12-17T02:03:10.773Z,85.32
2022-12-17T02:06:15.129Z,83.50
2022-12-17T02:09:12.651Z,78.85
2022-12-17T02:12:32.308Z,84.40
2022-12-17T02:15:47.066Z,83.78
2022-12-17T02:18:47.001Z,86.50
2022-12-17T02:21:32.704Z,80.45
2022-12-17T02:27:26.331Z,85.32
2022-12-17T02:30:21.650Z,89.57
2022-12-17T02:33:10.316Z,84.22
2022-12-17T02:36:12.325Z,89.57
2022-12-17T02:38:57.822Z,86.65
2022-12-17T02:41:50.685Z,84.65
2022-12-17T02:44:39.986Z,79.78
2022-12-17T02:47:29.897Z,83.70
2022-12-17T02:50:15.290Z,88.32
2022-12-17T02:53:06.207Z,76.00
2022-12-17T02:55:53.565Z,92.07
2022-12-17T02:58:39.095Z,87.20
2022-12-17T03:01:25.038Z,89.03
2022-12-17T03:04:10.404Z,86.93
2022-12-17T03:06:56.011Z,88.53
2022-12-17T03:09:41.811Z,84.85
2022-12-17T03:12:27.828Z,85.10
2022-12-17T03:15:13.491Z,88.18
2022-12-17T03:17:58.761Z,88.35
2022-12-17T03:20:44.397Z,84.03
2022-12-17T03:26:20.645Z,86.63
2022-12-17T03:29:07.071Z,85.82
2022-12-17T03:31:52.878Z,82.40
2022-12-17T03:34:38.436Z,87.15
2022-12-17T03:37:24.366Z,84.38
2022-12-17T03:40:09.654Z,87.80
2022-12-17T03:42:55.268Z,88.32
2022-12-17T03:45:40.893Z,91.25
2022-12-17T03:51:18.468Z,94.82
2022-12-17T03:54:04.284Z,86.25
2022-12-17T03:56:49.901Z,90.43
2022-12-17T03:59:35.250Z,86.53
2022-12-17T04:02:20.768Z,77.20
2022-12-17T04:05:06.590Z,85.75
2022-12-17T04:07:52.729Z,82.07
2022-12-17T04:10:38.584Z,81.40
2022-12-17T04:13:23.977Z,86.32
2022-12-17T04:16:10.204Z,76.25
2022-12-17T04:18:55.772Z,88.90
2022-12-17T04:21:41.222Z,76.47
2022-12-17T04:24:26.502Z,85.82
2022-12-17T04:27:11.848Z,83.00
2022-12-17T04:29:57.704Z,74.25
2022-12-17T04:32:43.078Z,82.88
2022-12-17T04:35:28.855Z,82.75
2022-12-17T04:40:59.791Z,87.20
2022-12-17T04:43:44.994Z,84.75
2022-12-17T04:49:16.260Z,86.78
2022-12-17T04:52:01.595Z,79.57
2022-12-17T04:54:47.222Z,79.75
2022-12-17T05:00:18.145Z,75.50
2022-12-17T05:03:03.626Z,78.32
2022-12-17T05:05:48.863Z,80.63
2022-12-17T05:08:39.633Z,86.05
2022-12-17T05:11:26.600Z,76.63
2022-12-17T05:14:19.486Z,75.63
2022-12-17T05:17:05.255Z,75.53
2022-12-17T05:22:36.142Z,74.22
2022-12-17T05:25:22.440Z,82.13
2022-12-17T05:28:08.010Z,85.13
2022-12-17T05:30:54.072Z,79.53
2022-12-17T05:33:39.923Z,82.93
2022-12-17T05:36:26.004Z,101.03
2022-12-17T05:39:11.748Z,84.32
2022-12-17T05:44:42.801Z,91.35
2022-12-17T05:47:31.088Z,78.10
2022-12-17T05:50:16.362Z,84.43
2022-12-17T05:53:01.680Z,78.57
2022-12-17T05:55:47.865Z,82.50
2022-12-17T05:58:33.169Z,78.70
2022-12-17T06:01:23.886Z,80.25
2022-12-17T06:04:10.410Z,88.45
2022-12-17T06:06:55.957Z,87.28
2022-12-17T06:09:41.293Z,86.68
2022-12-17T06:12:26.530Z,80.22
2022-12-17T06:15:12.072Z,84.82
2022-12-17T06:18:00.409Z,81.18
2022-12-17T06:20:46.360Z,84.22
2022-12-17T06:23:31.584Z,85.03
2022-12-17T06:26:16.935Z,86.43
2022-12-17T06:29:02.909Z,80.95
2022-12-17T06:31:48.410Z,85.88
2022-12-17T06:34:33.879Z,82.00
2022-12-17T06:37:19.855Z,93.20
2022-12-17T06:40:05.159Z,93.47
2022-12-17T06:42:50.831Z,95.70
2022-12-17T06:48:24.408Z,88.78
2022-12-17T06:51:15.152Z,81.55
2022-12-17T06:54:01.082Z,81.65
2022-12-17T06:56:46.534Z,92.47
2022-12-17T06:59:31.864Z,87.60
2022-12-17T07:02:17.418Z,92.70
2022-12-17T07:07:48.434Z,78.93
2022-12-17T07:10:34.090Z,91.55
2022-12-17T07:16:13.983Z,91.38
2022-12-17T07:18:59.590Z,92.18
2022-12-17T07:21:45.413Z,82.78
2022-12-17T07:24:31.638Z,93.25
2022-12-17T07:30:02.224Z,85.05
2022-12-17T07:32:47.772Z,87.28
2022-12-17T07:35:33.370Z,81.78
2022-12-17T07:38:21.818Z,90.63
2022-12-17T07:41:08.199Z,91.55
2022-12-17T07:43:53.848Z,89.28
2022-12-17T07:46:39.859Z,89.50
2022-12-17T07:49:26.049Z,86.68
2022-12-17T07:52:12.506Z,93.35
2022-12-17T07:54:58.649Z,90.57
2022-12-17T07:57:44.773Z,92.00
2022-12-17T08:00:31.810Z,98.28
2022-12-17T08:03:36.797Z,84.13
2022-12-17T08:06:22.678Z,91.32
2022-12-17T08:09:07.914Z,99.13
2022-12-17T08:11:53.238Z,93.63
2022-12-17T08:14:38.734Z,88.00
2022-12-17T08:17:23.965Z,97.30
2022-12-17T08:20:09.527Z,103.75
2022-12-17T08:22:55.102Z,99.25
2022-12-17T08:25:40.619Z,104.38
2022-12-17T08:28:49.668Z,110.75
2022-12-17T08:31:32.889Z,107.97
2022-12-17T08:34:18.436Z,114.25
2022-12-17T08:37:04.166Z,110.90
2022-12-17T08:42:35.210Z,128.80
2022-12-17T08:45:20.493Z,124.78
2022-12-17T08:48:08.316Z,136.18
2022-12-17T08:50:53.951Z,137.65
2022-12-17T08:56:25.589Z,124.88
2022-12-17T08:59:10.902Z,137.25
2022-12-17T09:01:56.222Z,135.73
2022-12-17T09:04:41.896Z,138.23
2022-12-17T09:07:27.726Z,132.75
2022-12-17T09:10:13.493Z,140.75
2022-12-17T09:15:50.527Z,109.20
2022-12-17T09:18:41.665Z,105.18
2022-12-17T09:21:27.631Z,104.57
2022-12-17T09:24:12.974Z,108.88
2022-12-17T09:26:58.498Z,106.53
2022-12-17T09:29:43.783Z,108.53
2022-12-17T09:32:29.163Z,110.00
2022-12-17T09:35:14.561Z,107.80
2022-12-17T09:38:00.153Z,108.57
2022-12-17T09:40:45.865Z,125.85
2022-12-17T09:46:51.519Z,121.63
2022-12-17T09:49:46.660Z,133.57
2022-12-17T09:52:43.666Z,124.30
2022-12-17T09:55:48.353Z,116.53
2022-12-17T09:58:56.812Z,130.32
2022-12-17T10:01:47.582Z,113.85
2022-12-17T10:05:02.864Z,119.55
2022-12-17T10:07:55.172Z,107.43
2022-12-17T10:10:50.682Z,117.38
2022-12-17T10:13:42.157Z,102.95
2022-12-17T10:16:56.482Z,105.60
2022-12-17T10:19:49.079Z,119.70
2022-12-17T10:22:39.408Z,101.53
2022-12-17T10:25:40.760Z,95.30
2022-12-17T10:28:41.056Z,89.07
2022-12-17T10:31:38.538Z,89.43
2022-12-17T10:34:47.921Z,89.97
2022-12-17T10:37:39.600Z,87.20
2022-12-17T10:40:50.457Z,95.80
2022-12-17T10:43:49.625Z,98.38
2022-12-17T10:46:52.688Z,111.18
2022-12-17T10:49:43.650Z,104.55
2022-12-17T10:52:47.691Z,99.00
2022-12-17T10:55:49.453Z,113.00
2022-12-17T10:58:44.865Z,111.13
2022-12-17T11:01:40.449Z,109.03
2022-12-17T11:04:54.949Z,110.70
2022-12-17T11:08:01.940Z,112.78
2022-12-17T11:10:55.556Z,112.85
2022-12-17T11:13:54.634Z,114.82
2022-12-17T11:17:00.437Z,112.03
2022-12-17T11:20:12.962Z,113.33
2022-12-17T11:23:18.095Z,118.47
2022-12-17T11:26:23.935Z,119.05
2022-12-17T11:29:09.305Z,132.02
2022-12-17T11:32:25.184Z,119.45
2022-12-17T11:35:25.418Z,121.55
2022-12-17T11:38:42.403Z,125.03
2022-12-17T11:45:08.965Z,130.35
2022-12-17T11:48:20.882Z,116.57
2022-12-17T11:51:36.584Z,121.00
2022-12-17T11:54:58.938Z,120.32
2022-12-17T11:58:05.811Z,119.22
2022-12-17T12:01:13.197Z,134.70
2022-12-17T12:04:17.708Z,133.93
2022-12-17T12:07:15.476Z,121.95
2022-12-17T12:10:50.522Z,119.20
2022-12-17T12:13:51.001Z,135.88
2022-12-17T12:17:08.527Z,134.52
2022-12-17T12:20:18.579Z,118.80
2022-12-17T12:23:25.600Z,116.10
2022-12-17T12:26:26.194Z,125.72
2022-12-17T12:29:42.196Z,105.25
2022-12-17T12:32:50.237Z,106.32
2022-12-17T12:35:43.137Z,99.13
2022-12-17T12:38:46.954Z,84.65
2022-12-17T12:41:39.576Z,90.80
2022-12-17T12:44:55.224Z,89.75
2022-12-17T12:48:21.517Z,88.82
2022-12-17T12:51:34.192Z,90.70
2022-12-17T12:54:45.066Z,94.55
2022-12-17T12:57:58.066Z,95.10
2022-12-17T13:01:09.585Z,87.25
2022-12-17T13:04:02.887Z,81.80
2022-12-17T13:06:48.790Z,78.45
2022-12-17T13:09:15.733Z,78.25
2022-12-17T13:12:02.159Z,75.07
2022-12-17T13:14:33.492Z,75.10
2022-12-17T13:17:08.389Z,77.10
2022-12-17T13:19:42.124Z,69.93
2022-12-17T13:22:23.322Z,61.35
2022-12-17T13:25:21.561Z,63.85
2022-12-17T13:27:50.834Z,67.32
2022-12-17T13:30:17.935Z,65.45
2022-12-17T13:33:14.870Z,61.53
2022-12-17T13:36:23.677Z,58.10
2022-12-17T13:39:10.372Z,58.20
2022-12-17T13:41:38.732Z,53.72
2022-12-17T13:44:33.269Z,58.50
2022-12-17T13:47:00.914Z,49.50
2022-12-17T13:49:30.553Z,56.70
2022-12-17T13:52:23.914Z,58.63
2022-12-17T13:54:51.129Z,58.72
2022-12-17T13:57:25.828Z,56.17
2022-12-17T13:59:56.812Z,57.22
2022-12-17T14:02:29.555Z,49.88
2022-12-17T14:05:07.212Z,56.78
2022-12-17T14:07:39.059Z,47.22
2022-12-17T14:10:16.570Z,54.83
2022-12-17T14:12:45.170Z,55.00
2022-12-17T14:15:28.593Z,61.25
2022-12-17T14:17:58.728Z,59.33
2022-12-17T14:20:34.038Z,61.50
2022-12-17T14:25:57.747Z,43.92
2022-12-17T14:28:33.149Z,54.70
2022-12-17T14:31:26.522Z,51.53
2022-12-17T14:34:13.619Z,56.53
2022-12-17T14:36:43.699Z,63.95
2022-12-17T14:39:30.012Z,66.63
2022-12-17T14:42:26.309Z,75.00
2022-12-17T14:45:00.853Z,69.97
2022-12-17T14:47:32.954Z,88.63
2022-12-17T14:50:25.842Z,68.32
2022-12-17T14:52:57.736Z,68.15
2022-12-17T14:55:55.254Z,60.35
2022-12-17T14:58:25.548Z,52.67
2022-12-17T15:01:14.542Z,52.42
2022-12-17T15:03:48.466Z,46.17
2022-12-17T15:06:20.459Z,43.50
2022-12-17T15:08:50.435Z,46.35
2022-12-17T15:11:20.877Z,39.67
2022-12-17T15:13:51.587Z,38.95
2022-12-17T15:16:23.426Z,38.67
2022-12-17T15:18:50.570Z,38.30
2022-12-17T15:21:19.597Z,40.60
2022-12-17T15:23:48.317Z,38.47
2022-12-17T15:26:15.269Z,40.88
2022-12-17T15:28:44.063Z,41.70
2022-12-17T15:31:13.950Z,39.55
2022-12-17T15:33:42.028Z,37.03
2022-12-17T15:36:12.081Z,51.15
2022-12-17T15:38:39.620Z,39.33
2022-12-17T15:41:25.618Z,39.03
2022-12-17T15:46:19.564Z,38.83
2022-12-17T15:48:50.111Z,41.83
2022-12-17T15:51:20.029Z,46.65
2022-12-17T15:53:48.504Z,40.70
2022-12-17T15:56:26.248Z,37.60
2022-12-17T15:58:56.824Z,40.70
2022-12-17T16:01:24.342Z,41.53
2022-12-17T16:03:51.857Z,33.53
2022-12-17T16:06:18.759Z,39.85
2022-12-17T16:08:46.180Z,43.78
2022-12-17T16:11:16.700Z,37.75
2022-12-17T16:13:43.714Z,40.17
2022-12-17T16:16:10.794Z,42.35
2022-12-17T16:18:38.766Z,40.95
2022-12-17T16:21:08.300Z,40.00
2022-12-17T16:23:35.554Z,40.22
2022-12-17T16:26:05.603Z,37.97
2022-12-17T16:28:32.824Z,41.85
2022-12-17T16:31:11.281Z,43.03
2022-12-17T16:33:42.363Z,46.78
2022-12-17T16:36:15.416Z,43.72
2022-12-17T16:38:52.760Z,47.50
2022-12-17T16:41:21.861Z,48.28
2022-12-17T16:43:49.695Z,42.72
2022-12-17T16:46:31.252Z,43.85
2022-12-17T16:49:04.910Z,43.17
2022-12-17T16:51:32.390Z,47.53
2022-12-17T16:53:59.664Z,47.75
2022-12-17T16:56:28.494Z,47.38
2022-12-17T16:58:56.547Z,49.67
2022-12-17T17:01:28.061Z,42.05
2022-12-17T17:03:56.254Z,41.70
2022-12-17T17:06:26.774Z,38.17
2022-12-17T17:08:57.189Z,42.42
2022-12-17T17:11:25.676Z,41.28
2022-12-17T17:13:54.428Z,38.25
2022-12-17T17:16:24.622Z,50.58
2022-12-17T17:18:53.940Z,45.40
2022-12-17T17:21:21.569Z,39.22
2022-12-17T17:23:53.429Z,49.67
2022-12-17T17:26:24.996Z,44.95
2022-12-17T17:28:52.069Z,40.13
2022-12-17T17:31:21.649Z,43.80
2022-12-17T17:33:51.582Z,52.80
2022-12-17T17:36:31.026Z,43.47
2022-12-17T17:39:00.533Z,48.80
2022-12-17T17:41:30.181Z,52.03
2022-12-17T17:44:06.959Z,46.53
2022-12-17T17:46:35.271Z,46.42
2022-12-17T17:49:06.765Z,52.22
2022-12-17T17:52:08.533Z,49.33
2022-12-17T17:54:24.712Z,52.03
2022-12-17T17:56:51.615Z,45.83
2022-12-17T17:59:19.276Z,42.70
2022-12-17T18:01:51.754Z,41.33
2022-12-17T18:04:22.027Z,44.30
2022-12-17T18:07:23.108Z,42.88
2022-12-17T18:09:36.150Z,43.15
2022-12-17T18:12:23.286Z,47.25
2022-12-17T18:15:13.064Z,38.30
2022-12-17T18:17:37.133Z,44.35
2022-12-17T18:20:04.708Z,42.40
2022-12-17T18:22:31.763Z,42.75
2022-12-17T18:24:58.764Z,42.00
2022-12-17T18:27:25.755Z,40.95
2022-12-17T18:29:52.749Z,44.35
2022-12-17T18:32:20.107Z,43.53
2022-12-17T18:34:47.070Z,44.05
2022-12-17T18:37:14.191Z,42.17
2022-12-17T18:39:41.300Z,44.55
2022-12-17T18:42:27.777Z,45.42
2022-12-17T18:44:54.941Z,39.45
2022-12-17T18:47:21.887Z,41.80
2022-12-17T18:49:48.943Z,41.72
2022-12-17T18:52:17.207Z,42.03
2022-12-17T18:54:45.331Z,45.65
2022-12-17T18:57:13.289Z,44.38
2022-12-17T18:59:41.146Z,36.15
2022-12-17T19:02:15.396Z,35.97
2022-12-17T19:04:42.699Z,41.67
2022-12-17T19:07:10.228Z,40.58
2022-12-17T19:09:39.348Z,40.45
2022-12-17T19:12:08.934Z,38.45
2022-12-17T19:14:36.658Z,41.17
2022-12-17T19:17:05.977Z,40.15
2022-12-17T19:19:33.591Z,42.42
2022-12-17T19:22:00.943Z,41.70
2022-12-17T19:24:28.591Z,43.63
2022-12-17T19:26:55.859Z,42.70
2022-12-17T19:29:23.291Z,47.75
2022-12-17T19:31:50.625Z,37.45
2022-12-17T19:34:19.883Z,37.88
2022-12-17T19:36:47.676Z,43.05
2022-12-17T19:39:18.186Z,44.47
2022-12-17T19:41:46.280Z,42.08
2022-12-17T19:44:16.063Z,41.78
2022-12-17T19:46:44.367Z,43.63
2022-12-17T19:49:14.122Z,41.25
2022-12-17T19:51:43.879Z,42.25
2022-12-17T19:54:13.810Z,37.13
2022-12-17T19:56:42.258Z,35.95
2022-12-17T19:59:11.446Z,38.58
2022-12-17T20:01:46.346Z,44.20
2022-12-17T20:04:16.663Z,40.17
2022-12-17T20:06:46.185Z,41.55
2022-12-17T20:09:15.290Z,38.13
2022-12-17T20:11:42.225Z,40.38
2022-12-17T20:14:22.303Z,39.40
2022-12-17T20:16:54.713Z,36.17
2022-12-17T20:19:30.994Z,39.25
2022-12-17T20:22:00.627Z,44.97
2022-12-17T20:24:31.434Z,42.47
2022-12-17T20:27:00.372Z,39.78
2022-12-17T20:29:27.770Z,37.83
2022-12-17T20:31:55.778Z,40.13
2022-12-17T20:34:24.376Z,39.85
2022-12-17T20:36:53.053Z,36.80
2022-12-17T20:39:26.133Z,41.55
2022-12-17T20:41:55.498Z,36.00
2022-12-17T20:44:22.443Z,40.13
2022-12-17T20:46:49.350Z,38.85
2022-12-17T20:49:16.396Z,39.17
2022-12-17T20:51:43.622Z,36.60
2022-12-17T20:54:11.410Z,39.40
2022-12-17T20:56:40.727Z,39.70
2022-12-17T20:59:13.353Z,40.72
2022-12-17T21:01:40.706Z,34.42
2022-12-17T21:04:08.149Z,36.45
2022-12-17T21:06:43.661Z,36.83
2022-12-17T21:09:11.981Z,37.25
2022-12-17T21:11:40.925Z,38.67
2022-12-17T21:14:14.774Z,43.00
2022-12-17T21:16:44.222Z,43.67
2022-12-17T21:19:19.293Z,38.33
2022-12-17T21:21:46.577Z,38.05
2022-12-17T21:24:13.501Z,39.05
2022-12-17T21:26:43.297Z,40.42
2022-12-17T21:29:10.656Z,39.60
2022-12-17T21:31:42.648Z,42.63
2022-12-17T21:34:18.403Z,39.10
2022-12-17T21:36:45.411Z,36.22
2022-12-17T21:39:14.824Z,41.20
2022-12-17T21:42:04.933Z,38.47
2022-12-17T21:44:32.127Z,39.88
2022-12-17T21:46:59.656Z,38.42
2022-12-17T21:49:26.835Z,35.78
2022-12-17T21:51:54.602Z,38.60
2022-12-17T21:54:21.453Z,38.60
2022-12-17T21:56:48.701Z,36.25
2022-12-17T21:59:15.799Z,33.88
2022-12-17T22:01:43.310Z,36.83
2022-12-17T22:04:10.402Z,34.40
2022-12-17T22:06:42.013Z,39.67
2022-12-17T22:09:41.940Z,36.42
2022-12-17T22:12:27.708Z,41.50
2022-12-17T22:14:54.640Z,37.95
2022-12-17T22:17:22.049Z,45.42
2022-12-17T22:19:49.037Z,40.15
2022-12-17T22:22:15.882Z,41.63
2022-12-17T22:24:43.225Z,37.42
2022-12-17T22:27:10.702Z,44.83
2022-12-17T22:30:03.737Z,39.90
2022-12-17T22:32:49.299Z,42.40
2022-12-17T22:37:15.114Z,42.17
2022-12-17T22:42:02.351Z,41.20
2022-12-17T22:43:35.828Z,41.65
2022-12-17T22:44:44.635Z,52.20
2022-12-17T22:46:27.648Z,39.58
2022-12-17T22:48:55.773Z,38.30
2022-12-17T22:51:23.913Z,44.95
2022-12-17T22:57:02.032Z,41.20
2022-12-17T22:59:25.070Z,37.55
2022-12-17T23:01:51.958Z,41.50
2022-12-17T23:04:18.929Z,43.58
2022-12-17T23:06:46.496Z,42.17
2022-12-17T23:09:18.200Z,41.33
2022-12-17T23:11:49.224Z,43.15
2022-12-17T23:14:18.238Z,44.22
2022-12-17T23:16:45.511Z,39.95
2022-12-17T23:19:13.615Z,37.40
2022-12-17T23:21:41.099Z,42.70
2022-12-17T23:24:08.851Z,46.95
2022-12-17T23:26:37.487Z,41.47
2022-12-17T23:29:17.666Z,44.65
2022-12-17T23:31:47.389Z,45.08
2022-12-17T23:34:15.422Z,39.67
2022-12-17T23:36:42.505Z,38.45
2022-12-17T23:39:09.477Z,42.03
2022-12-17T23:41:36.587Z,39.45
2022-12-17T23:44:03.616Z,52.05
2022-12-17T23:46:31.478Z,51.22
2022-12-17T23:48:58.735Z,54.53
2022-12-17T23:51:26.552Z,45.17
2022-12-17T23:53:53.524Z,42.95
2022-12-17T23:56:26.279Z,47.30
2022-12-17T23:59:05.145Z,42.67
